Time;durP1;ratioP1;P1;durP2;ratioP2;P2;SDS_P1;SDS_P2;PMS_P1;PMS_P2;Temp;Humidity;BMP_temperature;BMP_pressure;BME280_temperature;BME280_humidity;BME280_pressure;Samples;Min_cycle;Max_cycle;Signal;HPM_P1;HPM_P2
2022/07/05 00:01:09;;;;;;;1.98;0.88;;;23.90;47.30;;;;;;7393089;19;20370;-80
2022/07/05 00:03:38;;;;;;;6.65;1.10;;;23.90;47.30;;;;;;7393702;19;20019;-81
2022/07/05 00:06:07;;;;;;;4.28;1.30;;;23.90;47.30;;;;;;7393138;19;20078;-80
2022/07/05 00:08:40;;;;;;;2.78;1.20;;;23.90;48.00;;;;;;7392749;19;20018;-80
2022/07/05 00:11:09;;;;;;;2.88;0.77;;;23.90;48.00;;;;;;7393131;19;20425;-79
2022/07/05 00:13:39;;;;;;;6.82;1.40;;;23.90;47.50;;;;;;7392403;19;20019;-80
2022/07/05 00:16:08;;;;;;;3.35;1.10;;;23.90;47.40;;;;;;7392048;19;20375;-80
2022/07/05 00:18:37;;;;;;;5.07;1.20;;;23.80;47.50;;;;;;7392295;19;20074;-80
2022/07/05 00:21:06;;;;;;;2.30;1.00;;;23.80;47.50;;;;;;7392441;19;20042;-80
2022/07/05 00:23:38;;;;;;;3.22;1.38;;;23.80;47.50;;;;;;7391931;19;20070;-80
2022/07/05 00:26:06;;;;;;;3.30;1.20;;;23.80;47.50;;;;;;7392782;19;20010;-80
2022/07/05 00:28:35;;;;;;;3.20;1.20;;;23.70;47.60;;;;;;7392729;19;20011;-80
2022/07/05 00:31:05;;;;;;;3.97;1.17;;;23.80;47.60;;;;;;7392657;19;20022;-80
2022/07/05 00:33:33;;;;;;;8.82;1.30;;;23.70;47.80;;;;;;7392964;19;20021;-80
2022/07/05 00:36:02;;;;;;;4.15;1.25;;;23.60;47.50;;;;;;7394882;19;20026;-81
2022/07/05 00:38:31;;;;;;;3.35;1.20;;;23.60;47.90;;;;;;7392322;19;20014;-80
2022/07/05 00:41:03;;;;;;;3.85;1.42;;;23.60;47.80;;;;;;7391930;19;20011;-80
2022/07/05 00:43:32;;;;;;;3.42;0.95;;;23.50;47.70;;;;;;7393246;19;20011;-80
2022/07/05 00:46:01;;;;;;;2.50;1.10;;;23.40;47.70;;;;;;7394595;19;20022;-80
2022/07/05 00:48:30;;;;;;;4.00;1.20;;;23.40;47.80;;;;;;7394300;19;20014;-82
2022/07/05 00:50:59;;;;;;;1.33;0.90;;;23.40;47.70;;;;;;7391482;19;20011;-80
2022/07/05 00:53:27;;;;;;;4.55;0.98;;;23.30;47.70;;;;;;7393969;19;20014;-81
2022/07/05 00:55:56;;;;;;;2.72;1.08;;;23.30;47.90;;;;;;7393857;19;20018;-81
2022/07/05 00:58:29;;;;;;;1.83;1.13;;;23.20;47.90;;;;;;7393944;19;20090;-81
2022/07/05 01:00:57;;;;;;;4.38;1.13;;;23.00;48.10;;;;;;7391828;19;20010;-81
2022/07/05 01:03:27;;;;;;;5.32;1.17;;;22.80;48.40;;;;;;7394593;19;20048;-80
2022/07/05 01:05:57;;;;;;;3.25;1.08;;;22.70;48.60;;;;;;7390472;19;20021;-80
2022/07/05 01:08:26;;;;;;;4.10;1.20;;;22.40;49.00;;;;;;7391721;19;20055;-80
2022/07/05 01:10:58;;;;;;;2.05;0.98;;;22.50;49.20;;;;;;7391512;19;20038;-80
2022/07/05 01:13:29;;;;;;;4.72;1.17;;;22.40;49.20;;;;;;7391947;19;20562;-80
2022/07/05 01:15:59;;;;;;;6.93;1.33;;;22.40;49.20;;;;;;7392253;19;20034;-80
2022/07/05 01:18:28;;;;;;;3.22;1.20;;;22.30;49.40;;;;;;7393703;19;20066;-80
2022/07/05 01:20:58;;;;;;;4.72;1.25;;;22.30;49.50;;;;;;7390157;19;20372;-79
2022/07/05 01:23:30;;;;;;;2.75;1.05;;;22.30;49.60;;;;;;7391891;19;20600;-80
2022/07/05 01:26:02;;;;;;;4.32;1.23;;;22.20;49.70;;;;;;7391763;19;20010;-80
2022/07/05 01:28:30;;;;;;;;;;;22.30;49.80;;;;;;7392004;19;20023;-81
2022/07/05 01:30:59;;;;;;;4.43;1.30;;;22.30;49.80;;;;;;7391042;19;19919;-81
2022/07/05 01:33:32;;;;;;;3.38;1.20;;;22.30;49.60;;;;;;7390505;19;20727;-80
2022/07/05 01:36:01;;;;;;;4.40;1.23;;;22.30;49.60;;;;;;7391142;19;20018;-81
2022/07/05 01:38:33;;;;;;;5.18;1.40;;;22.30;49.70;;;;;;7392479;19;20007;-81
2022/07/05 01:41:02;;;;;;;11.70;1.60;;;22.30;49.60;;;;;;7392616;19;20061;-80
2022/07/05 01:43:30;;;;;;;3.20;1.17;;;22.30;49.60;;;;;;7391761;19;20019;-81
2022/07/05 01:46:01;;;;;;;4.35;1.38;;;22.20;49.70;;;;;;7391508;19;20011;-81
2022/07/05 01:48:32;;;;;;;4.63;1.30;;;22.00;49.90;;;;;;7391919;19;20018;-81
2022/07/05 01:51:07;;;;;;;6.75;1.23;;;22.00;50.10;;;;;;7391351;19;20014;-81
2022/07/05 01:53:41;;;;;;;3.65;1.10;;;22.00;50.10;;;;;;7391121;19;20038;-80
2022/07/05 01:56:10;;;;;;;5.47;1.10;;;21.90;50.30;;;;;;7392489;19;20452;-80
2022/07/05 01:58:39;;;;;;;4.20;1.15;;;21.80;50.60;;;;;;7392295;19;20018;-81
2022/07/05 02:01:08;;;;;;;4.65;1.85;;;21.70;50.70;;;;;;7392030;19;20010;-81
2022/07/05 02:03:38;;;;;;;4.43;1.30;;;21.70;50.70;;;;;;7394200;19;20054;-80
2022/07/05 02:06:10;;;;;;;3.13;1.20;;;21.60;50.90;;;;;;7392822;19;20393;-80
2022/07/05 02:08:41;;;;;;;2.78;1.27;;;21.60;51.10;;;;;;7394051;19;20018;-80
2022/07/05 02:11:11;;;;;;;8.18;1.42;;;21.50;51.40;;;;;;7390409;19;20014;-80
2022/07/05 02:13:41;;;;;;;3.30;1.10;;;21.50;51.30;;;;;;7390409;19;20039;-80
2022/07/05 02:16:10;;;;;;;2.72;1.10;;;21.60;51.20;;;;;;7390434;19;20011;-79
2022/07/05 02:18:39;;;;;;;6.25;1.52;;;21.60;51.20;;;;;;7391137;19;20026;-80
2022/07/05 02:21:09;;;;;;;3.35;1.30;;;21.60;51.10;;;;;;7390314;19;20006;-80
2022/07/05 02:23:37;;;;;;;4.97;1.10;;;21.60;51.00;;;;;;7390752;19;20019;-80
2022/07/05 02:26:09;;;;;;;6.00;1.50;;;21.70;51.10;;;;;;7391804;19;20015;-80
2022/07/05 02:28:37;;;;;;;;;;;21.70;51.00;;;;;;7391551;19;20078;-81
2022/07/05 02:31:06;;;;;;;2.75;1.10;;;21.80;51.00;;;;;;7389342;19;19915;-80
2022/07/05 02:33:35;;;;;;;3.55;1.20;;;21.80;50.90;;;;;;7391591;19;20468;-81
2022/07/05 02:36:10;;;;;;;4.30;0.98;;;21.80;50.80;;;;;;7391602;19;20019;-80
2022/07/05 02:38:39;;;;;;;6.40;1.30;;;21.70;50.80;;;;;;7390647;19;20098;-81
2022/07/05 02:41:12;;;;;;;1.83;1.17;;;21.80;50.80;;;;;;7391377;19;20014;-81
2022/07/05 02:43:42;;;;;;;5.88;1.10;;;21.80;50.80;;;;;;7388470;19;20014;-80
2022/07/05 02:46:12;;;;;;;3.55;1.30;;;21.80;50.80;;;;;;7390633;19;20438;-80
2022/07/05 02:48:41;;;;;;;2.72;1.10;;;21.80;50.90;;;;;;7389795;19;20015;-80
2022/07/05 02:51:10;;;;;;;4.28;1.50;;;21.80;50.70;;;;;;7388200;19;20014;-80
2022/07/05 02:53:39;;;;;;;1.55;1.10;;;21.80;50.70;;;;;;7390096;19;20042;-80
2022/07/05 02:56:10;;;;;;;5.13;1.40;;;21.70;50.70;;;;;;7391017;19;20019;-80
2022/07/05 02:58:40;;;;;;;4.63;1.50;;;21.70;50.90;;;;;;7390300;19;20046;-80
2022/07/05 03:01:09;;;;;;;4.25;1.38;;;21.70;50.90;;;;;;7390261;19;20023;-79
2022/07/05 03:03:38;;;;;;;3.80;1.27;;;21.60;51.00;;;;;;7389574;19;20411;-79
2022/07/05 03:06:07;;;;;;;2.10;1.20;;;21.50;51.20;;;;;;7390534;19;20042;-79
2022/07/05 03:08:36;;;;;;;5.55;1.95;;;21.50;51.30;;;;;;7390267;19;20407;-80
2022/07/05 03:11:05;;;;;;;3.65;1.48;;;21.50;51.50;;;;;;7386415;19;20023;-80
2022/07/05 03:13:36;;;;;;;5.32;1.45;;;21.50;51.40;;;;;;7389947;19;20046;-80
2022/07/05 03:16:05;;;;;;;;;;;21.50;50.80;;;;;;7390168;19;20062;-79
2022/07/05 03:18:34;;;;;;;4.05;1.30;;;21.50;50.90;;;;;;7388066;19;19926;-80
2022/07/05 03:21:03;;;;;;;7.57;1.55;;;21.50;50.80;;;;;;7395273;19;20011;-79
2022/07/05 03:23:31;;;;;;;5.22;1.20;;;21.50;51.00;;;;;;7393884;19;20044;-80
2022/07/05 03:26:00;;;;;;;4.75;1.45;;;21.50;51.00;;;;;;7393712;19;20014;-81
2022/07/05 03:28:29;;;;;;;6.28;1.58;;;21.50;51.20;;;;;;7396665;19;20034;-79
2022/07/05 03:31:01;;;;;;;4.80;1.58;;;21.50;51.00;;;;;;7394529;19;20019;-77
2022/07/05 03:33:30;;;;;;;6.10;1.55;;;21.50;51.00;;;;;;7395715;19;20022;-78
2022/07/05 03:35:59;;;;;;;4.60;1.50;;;21.50;51.20;;;;;;7395014;19;20031;-77
2022/07/05 03:38:28;;;;;;;3.15;1.30;;;21.50;51.20;;;;;;7394696;19;20046;-77
2022/07/05 03:40:57;;;;;;;5.75;1.77;;;21.50;50.60;;;;;;7391888;19;20014;-77
2022/07/05 03:43:26;;;;;;;7.45;1.60;;;21.50;50.80;;;;;;7395725;19;20014;-77
2022/07/05 03:45:55;;;;;;;6.38;1.48;;;21.50;50.90;;;;;;7393251;19;20002;-76
2022/07/05 03:48:27;;;;;;;7.13;1.50;;;21.50;51.30;;;;;;7395769;19;20015;-76
2022/07/05 03:50:55;;;;;;;;;;;21.40;51.20;;;;;;7396328;19;20021;-76
2022/07/05 03:53:24;;;;;;;5.38;1.75;;;21.30;51.30;;;;;;7394504;19;20270;-77
2022/07/05 03:55:53;;;;;;;5.88;1.50;;;21.20;51.40;;;;;;7392186;19;20074;-76
2022/07/05 03:58:22;;;;;;;6.20;1.60;;;21.10;51.70;;;;;;7393350;19;20010;-76
2022/07/05 04:00:50;;;;;;;6.20;1.60;;;21.10;52.00;;;;;;7391154;19;20338;-77
2022/07/05 04:03:19;;;;;;;5.25;1.50;;;21.10;51.90;;;;;;7391437;19;20010;-76
2022/07/05 04:05:51;;;;;;;6.45;1.50;;;21.00;51.70;;;;;;7392482;19;20453;-77
2022/07/05 04:08:22;;;;;;;2.25;1.50;;;21.10;51.80;;;;;;7394530;19;20010;-76
2022/07/05 04:10:50;;;;;;;8.88;2.03;;;21.10;51.60;;;;;;7391806;19;20010;-77
2022/07/05 04:13:19;;;;;;;7.95;1.70;;;21.10;51.80;;;;;;7395425;19;20031;-77
2022/07/05 04:15:49;;;;;;;5.60;1.50;;;21.10;52.10;;;;;;7391328;19;20019;-76
2022/07/05 04:18:18;;;;;;;5.28;1.52;;;21.10;52.00;;;;;;7391289;19;20014;-77
2022/07/05 04:20:50;;;;;;;8.90;1.50;;;21.10;52.00;;;;;;7391877;19;20014;-77
2022/07/05 04:23:18;;;;;;;11.27;2.03;;;21.10;52.00;;;;;;7393549;19;20025;-77
2022/07/05 04:25:47;;;;;;;6.70;1.80;;;21.10;52.00;;;;;;7394727;19;20118;-76
2022/07/05 04:28:16;;;;;;;6.50;1.80;;;21.10;51.90;;;;;;7393966;19;20018;-76
2022/07/05 04:30:45;;;;;;;7.60;2.03;;;21.20;52.20;;;;;;7393242;19;20018;-77
2022/07/05 04:33:14;;;;;;;6.47;2.03;;;21.20;52.10;;;;;;7393099;19;20039;-77
2022/07/05 04:35:43;;;;;;;4.28;1.70;;;21.20;52.10;;;;;;7391111;19;20042;-77
2022/07/05 04:38:14;;;;;;;10.90;2.55;;;21.20;51.90;;;;;;7392082;19;20034;-77
2022/07/05 04:40:43;;;;;;;6.88;1.92;;;21.20;51.80;;;;;;7393199;19;20038;-77
2022/07/05 04:43:12;;;;;;;8.65;2.15;;;21.20;52.10;;;;;;7390499;19;20038;-77
2022/07/05 04:45:41;;;;;;;8.18;2.13;;;21.10;52.30;;;;;;7391647;19;20023;-78
2022/07/05 04:48:10;;;;;;;6.65;1.70;;;21.10;52.30;;;;;;7391668;19;20011;-77
2022/07/05 04:50:39;;;;;;;4.15;1.70;;;21.00;52.50;;;;;;7393226;19;20017;-77
2022/07/05 04:53:09;;;;;;;7.40;1.88;;;21.00;52.50;;;;;;7390662;19;20019;-77
2022/07/05 04:55:41;;;;;;;6.47;2.05;;;21.10;52.70;;;;;;7394152;19;20031;-77
2022/07/05 04:58:11;;;;;;;6.15;1.83;;;21.10;52.60;;;;;;7390183;19;20014;-77
2022/07/05 05:00:40;;;;;;;5.70;1.70;;;21.20;52.50;;;;;;7389990;19;20484;-77
2022/07/05 05:03:09;;;;;;;2.95;1.52;;;21.20;52.50;;;;;;7390730;19;20089;-77
2022/07/05 05:05:38;;;;;;;11.57;1.75;;;21.30;52.60;;;;;;7392436;19;20012;-77
2022/07/05 05:08:07;;;;;;;7.50;2.10;;;21.30;52.60;;;;;;7392515;19;20619;-77
2022/07/05 05:10:36;;;;;;;5.35;1.85;;;21.30;52.90;;;;;;7391911;19;20023;-77
2022/07/05 05:13:08;;;;;;;11.10;2.83;;;21.20;53.00;;;;;;7393197;19;20006;-77
2022/07/05 05:15:37;;;;;;;9.45;2.28;;;21.20;53.50;;;;;;7391154;19;20006;-77
2022/07/05 05:18:06;;;;;;;10.52;2.80;;;21.20;53.60;;;;;;7389230;19;20018;-77
2022/07/05 05:20:35;;;;;;;13.20;2.55;;;21.20;53.70;;;;;;7390585;19;20102;-77
2022/07/05 05:23:04;;;;;;;12.38;2.53;;;21.10;54.00;;;;;;7392405;19;20022;-77
2022/07/05 05:25:34;;;;;;;10.23;2.95;;;21.10;54.20;;;;;;7389832;19;20014;-77
2022/07/05 05:28:04;;;;;;;11.77;2.67;;;21.00;54.60;;;;;;7393946;19;20038;-77
2022/07/05 05:30:35;;;;;;;10.88;2.97;;;21.00;54.90;;;;;;7391480;19;20019;-77
2022/07/05 05:33:04;;;;;;;14.55;3.45;;;20.90;55.30;;;;;;7389970;19;20025;-77
2022/07/05 05:35:33;;;;;;;10.77;2.65;;;20.80;55.60;;;;;;7388896;19;20039;-77
2022/07/05 05:38:02;;;;;;;8.13;2.92;;;20.80;55.90;;;;;;7393149;19;20461;-78
2022/07/05 05:40:32;;;;;;;16.85;4.20;;;20.80;56.00;;;;;;7390661;19;20066;-77
2022/07/05 05:43:02;;;;;;;15.57;3.17;;;20.80;56.20;;;;;;7387621;19;20014;-76
2022/07/05 05:45:31;;;;;;;10.00;2.83;;;20.70;56.30;;;;;;7391098;19;20030;-76
2022/07/05 05:48:02;;;;;;;8.20;2.90;;;20.70;56.30;;;;;;7390908;19;20014;-76
2022/07/05 05:50:33;;;;;;;14.32;3.40;;;20.60;56.50;;;;;;7391234;19;20038;-76
2022/07/05 05:53:03;;;;;;;11.85;3.00;;;20.60;56.70;;;;;;7389429;19;20018;-76
2022/07/05 05:55:33;;;;;;;10.23;3.30;;;20.50;57.00;;;;;;7392005;19;20303;-76
2022/07/05 05:58:13;;;;;;;10.25;3.75;;;20.50;57.20;;;;;;7390681;19;20041;-76
2022/07/05 06:00:42;;;;;;;15.93;3.70;;;20.50;57.40;;;;;;7389852;19;20018;-76
2022/07/05 06:03:14;;;;;;;11.07;3.03;;;20.50;57.70;;;;;;7389112;19;20437;-77
2022/07/05 06:05:43;;;;;;;13.73;3.13;;;20.50;57.70;;;;;;7391515;19;20018;-77
2022/07/05 06:08:12;;;;;;;13.10;3.65;;;20.60;57.60;;;;;;7389417;19;20015;-77
2022/07/05 06:10:41;;;;;;;14.07;3.60;;;20.60;57.70;;;;;;7387461;19;20473;-77
2022/07/05 06:13:12;;;;;;;9.98;3.38;;;20.50;57.90;;;;;;7389387;19;20015;-77
2022/07/05 06:15:42;;;;;;;15.15;3.30;;;20.60;57.80;;;;;;7389495;19;20449;-77
2022/07/05 06:18:14;;;;;;;10.88;3.20;;;20.70;57.90;;;;;;7388267;19;20010;-77
2022/07/05 06:20:43;;;;;;;11.73;3.42;;;20.70;57.60;;;;;;7391879;19;20015;-78
2022/07/05 06:23:12;;;;;;;13.93;2.92;;;20.80;57.60;;;;;;7391713;19;20023;-77
2022/07/05 06:25:41;;;;;;;12.70;3.88;;;20.70;57.70;;;;;;7390154;19;20018;-77
2022/07/05 06:28:11;;;;;;;15.15;3.88;;;20.70;57.50;;;;;;7390544;19;20054;-77
2022/07/05 06:30:41;;;;;;;12.27;3.30;;;20.70;57.70;;;;;;7390205;19;20356;-77
2022/07/05 06:33:10;;;;;;;15.93;2.97;;;20.70;57.70;;;;;;7388592;19;20110;-77
2022/07/05 06:35:42;;;;;;;6.47;2.50;;;20.80;57.70;;;;;;7387836;19;20015;-77
2022/07/05 06:38:12;;;;;;;12.77;3.13;;;20.90;57.70;;;;;;7389296;19;20018;-77
2022/07/05 06:40:44;;;;;;;8.43;3.20;;;21.00;57.50;;;;;;7388149;19;20015;-77
2022/07/05 06:43:14;;;;;;;15.05;3.13;;;21.00;57.40;;;;;;7389279;19;20027;-77
2022/07/05 06:45:44;;;;;;;14.73;3.03;;;21.10;57.10;;;;;;7388182;19;20313;-77
2022/07/05 06:48:14;;;;;;;6.13;2.97;;;21.30;57.20;;;;;;7387669;19;20270;-77
2022/07/05 06:50:46;;;;;;;9.50;3.05;;;21.10;57.00;;;;;;7386589;19;20010;-77
2022/07/05 06:53:15;;;;;;;10.63;3.20;;;21.10;57.00;;;;;;7389621;19;20090;-77
2022/07/05 06:55:54;;;;;;;12.32;3.20;;;21.20;57.00;;;;;;7393889;19;20025;-77
2022/07/05 06:58:33;;;;;;;9.43;2.50;;;21.30;56.80;;;;;;7393147;19;20015;-76
2022/07/05 07:01:04;;;;;;;8.90;2.85;;;21.40;56.80;;;;;;7392749;19;20014;-75
2022/07/05 07:03:33;;;;;;;10.55;2.85;;;21.30;56.40;;;;;;7397145;19;20017;-75
2022/07/05 07:06:05;;;;;;;11.35;2.67;;;21.40;56.50;;;;;;7392437;19;20014;-75
2022/07/05 07:11:16;;;;;;;8.93;2.70;;;21.50;56.50;;;;;;7395531;19;20025;-76
2022/07/05 07:13:45;;;;;;;6.85;2.53;;;21.60;56.30;;;;;;7390897;19;20038;-75
2022/07/05 07:16:14;;;;;;;10.70;3.00;;;21.60;56.10;;;;;;7395706;19;20359;-75
2022/07/05 07:18:43;;;;;;;11.27;2.95;;;21.60;56.30;;;;;;7395703;19;20018;-75
2022/07/05 07:21:14;;;;;;;12.88;3.60;;;21.60;56.20;;;;;;7390751;19;20046;-75
2022/07/05 07:23:43;;;;;;;9.57;2.80;;;21.60;56.20;;;;;;7395283;19;20024;-75
2022/07/05 07:26:13;;;;;;;8.07;2.70;;;21.60;56.20;;;;;;7393543;19;20031;-75
2022/07/05 07:28:42;;;;;;;9.65;2.60;;;21.70;56.20;;;;;;7392124;19;20018;-75
2022/07/05 07:31:11;;;;;;;11.32;3.42;;;21.80;56.00;;;;;;7393190;19;20070;-75
2022/07/05 07:33:40;;;;;;;6.40;2.28;;;22.00;55.90;;;;;;7392955;19;20086;-75
2022/07/05 07:36:09;;;;;;;7.13;2.67;;;22.10;55.70;;;;;;7393665;19;20473;-75
2022/07/05 07:38:40;;;;;;;6.82;2.53;;;22.20;55.50;;;;;;7394029;19;20429;-75
2022/07/05 07:41:09;;;;;;;11.20;2.70;;;22.30;55.10;;;;;;7394221;19;20022;-75
2022/07/05 07:43:38;;;;;;;12.65;2.13;;;22.40;54.70;;;;;;7391959;19;20038;-75
2022/07/05 07:46:07;;;;;;;10.30;2.72;;;22.50;54.50;;;;;;7393814;19;20331;-75
2022/07/05 07:48:36;;;;;;;17.50;3.25;;;22.50;54.80;;;;;;7395121;19;20437;-76
2022/07/05 07:51:05;;;;;;;9.18;2.33;;;22.60;54.00;;;;;;7393210;19;20756;-75
2022/07/05 07:53:34;;;;;;;8.88;2.30;;;22.60;53.80;;;;;;7391457;19;20066;-75
2022/07/05 07:56:06;;;;;;;7.68;2.47;;;22.70;53.80;;;;;;7391856;19;20010;-75
2022/07/05 07:58:34;;;;;;;5.22;2.22;;;22.60;53.50;;;;;;7390795;19;20018;-74
2022/07/05 08:01:05;;;;;;;6.90;2.20;;;22.70;53.70;;;;;;7394308;19;20014;-76
2022/07/05 08:03:35;;;;;;;9.93;2.42;;;22.70;53.50;;;;;;7391168;19;20038;-76
2022/07/05 08:06:04;;;;;;;7.82;1.92;;;22.60;53.40;;;;;;7391901;19;20023;-75
2022/07/05 08:08:33;;;;;;;9.20;2.30;;;22.40;52.90;;;;;;7392482;19;20027;-76
2022/07/05 08:11:04;;;;;;;6.55;1.85;;;22.50;53.70;;;;;;7395570;19;20521;-74
2022/07/05 08:13:33;;;;;;;4.85;2.03;;;22.50;53.50;;;;;;7392763;19;20022;-75
2022/07/05 08:16:02;;;;;;;5.80;1.90;;;22.60;52.50;;;;;;7391261;19;20406;-75
2022/07/05 08:21:38;;;;;;;5.00;2.08;;;22.70;52.10;;;;;;7394264;19;20026;-75
2022/07/05 08:24:12;;;;;;;6.88;2.28;;;22.80;52.40;;;;;;7390100;19;20021;-74
2022/07/05 08:26:46;;;;;;;5.32;2.15;;;22.90;52.80;;;;;;7392323;19;20433;-75
2022/07/05 08:29:16;;;;;;;3.78;1.92;;;22.90;52.80;;;;;;7393175;19;20014;-74
2022/07/05 08:31:47;;;;;;;8.55;1.98;;;22.70;52.20;;;;;;7391730;19;20029;-74
2022/07/05 08:34:17;;;;;;;6.70;2.13;;;22.90;52.50;;;;;;7393931;19;20089;-74
2022/07/05 08:36:47;;;;;;;5.83;1.63;;;22.90;52.30;;;;;;7395438;19;20170;-75
2022/07/05 08:39:17;;;;;;;5.93;1.90;;;23.00;51.70;;;;;;7391383;19;20394;-74
2022/07/05 08:41:51;;;;;;;7.53;2.00;;;22.90;51.30;;;;;;7392870;19;20759;-74
2022/07/05 08:44:22;;;;;;;9.63;2.08;;;22.80;51.90;;;;;;7391053;19;20014;-75
2022/07/05 08:46:53;;;;;;;4.20;1.77;;;22.60;51.90;;;;;;7394388;19;20106;-75
2022/07/05 08:49:25;;;;;;;6.57;1.93;;;22.60;51.80;;;;;;7390872;19;20018;-74
2022/07/05 08:51:54;;;;;;;6.25;1.85;;;22.50;52.30;;;;;;7393534;19;20126;-74
2022/07/05 08:54:25;;;;;;;5.72;1.70;;;22.60;52.10;;;;;;7392838;19;20039;-75
2022/07/05 08:56:57;;;;;;;4.97;2.00;;;22.70;52.10;;;;;;7391361;19;20014;-75
2022/07/05 08:59:26;;;;;;;5.88;2.00;;;22.70;52.10;;;;;;7392460;19;20031;-75
2022/07/05 09:01:56;;;;;;;4.88;2.03;;;22.80;52.20;;;;;;7391656;19;20564;-74
2022/07/05 09:04:26;;;;;;;6.82;2.13;;;22.90;52.20;;;;;;7392259;19;20021;-75
2022/07/05 09:06:57;;;;;;;4.37;2.03;;;22.90;51.60;;;;;;7391129;19;20013;-75
2022/07/05 09:09:28;;;;;;;7.43;1.83;;;22.90;51.50;;;;;;7390244;19;20010;-75
2022/07/05 09:12:00;;;;;;;6.68;1.92;;;22.90;51.30;;;;;;7390587;19;20441;-74
2022/07/05 09:14:28;;;;;;;;;;;22.70;52.00;;;;;;7394491;19;20048;-75
2022/07/05 09:16:57;;;;;;;8.70;1.75;;;22.80;51.70;;;;;;7386862;19;20389;-75
2022/07/05 09:19:28;;;;;;;5.30;1.85;;;22.90;50.50;;;;;;7393909;19;20037;-74
2022/07/05 09:22:05;;;;;;;4.25;1.90;;;22.90;50.40;;;;;;7392178;19;20010;-75
2022/07/05 09:24:34;;;;;;;7.80;2.10;;;22.90;50.60;;;;;;7391051;19;20011;-75
2022/07/05 09:27:09;;;;;;;7.00;1.90;;;22.80;51.30;;;;;;7391300;19;20018;-75
2022/07/05 09:29:38;;;;;;;6.60;2.38;;;22.80;51.80;;;;;;7390015;19;20437;-75
2022/07/05 09:32:08;;;;;;;7.90;2.22;;;22.80;51.70;;;;;;7389266;19;20010;-75
2022/07/05 09:34:37;;;;;;;7.03;1.73;;;22.70;51.80;;;;;;7392731;19;20021;-74
2022/07/05 09:37:07;;;;;;;8.95;2.20;;;22.80;52.00;;;;;;7386162;19;20022;-75
2022/07/05 09:39:41;;;;;;;6.65;2.20;;;22.90;51.20;;;;;;7391613;19;20022;-75
2022/07/05 09:42:20;;;;;;;4.93;1.80;;;22.80;50.60;;;;;;7391483;19;20579;-77
2022/07/05 09:44:51;;;;;;;3.80;1.58;;;22.90;51.30;;;;;;7390594;19;20025;-76
2022/07/05 09:47:21;;;;;;;5.73;1.83;;;22.90;50.90;;;;;;7390221;19;20014;-76
2022/07/05 09:49:53;;;;;;;7.17;2.03;;;23.00;50.40;;;;;;7391532;19;20267;-77
2022/07/05 09:52:33;;;;;;;3.95;1.88;;;23.10;50.40;;;;;;7389013;19;20014;-77
2022/07/05 09:55:07;;;;;;;5.03;1.77;;;23.20;50.40;;;;;;7391813;19;20010;-76
2022/07/05 09:57:40;;;;;;;4.97;1.92;;;23.40;50.40;;;;;;7390050;19;20019;-76
2022/07/05 10:00:14;;;;;;;4.78;1.83;;;23.40;49.50;;;;;;7389400;19;20130;-77
2022/07/05 10:02:47;;;;;;;6.82;2.28;;;23.40;49.50;;;;;;7390188;19;20386;-76
2022/07/05 10:05:18;;;;;;;7.55;1.90;;;23.40;49.10;;;;;;7390237;19;20014;-76
2022/07/05 10:07:49;;;;;;;5.13;1.98;;;23.30;48.90;;;;;;7387862;19;20103;-77
2022/07/05 10:10:19;;;;;;;3.03;1.60;;;23.30;48.80;;;;;;7389203;19;20011;-77
2022/07/05 10:12:52;;;;;;;4.93;2.13;;;23.40;48.60;;;;;;7391473;19;20078;-77
2022/07/05 10:15:24;;;;;;;4.70;1.75;;;23.40;48.80;;;;;;7390120;19;20014;-77
2022/07/05 10:17:56;;;;;;;3.80;1.80;;;23.50;48.70;;;;;;7389818;19;20035;-77
2022/07/05 10:20:28;;;;;;;6.97;1.83;;;23.60;48.50;;;;;;7390283;19;20015;-78
2022/07/05 10:22:59;;;;;;;7.00;2.15;;;23.60;48.00;;;;;;7389452;19;20102;-77
2022/07/05 10:25:30;;;;;;;3.38;1.77;;;23.60;47.90;;;;;;7389170;19;20026;-77
2022/07/05 10:28:02;;;;;;;;;;;23.40;48.10;;;;;;7390479;19;20034;-77
2022/07/05 10:30:32;;;;;;;5.28;1.83;;;23.50;47.90;;;;;;7389826;19;20009;-79
2022/07/05 10:33:02;;;;;;;5.70;2.03;;;23.40;47.40;;;;;;7387961;19;20025;-77
2022/07/05 10:35:31;;;;;;;3.53;1.75;;;23.50;46.40;;;;;;7389946;19;20043;-78
2022/07/05 10:38:01;;;;;;;4.50;1.90;;;23.30;46.60;;;;;;7390049;19;20045;-78
2022/07/05 10:40:31;;;;;;;3.10;1.80;;;23.40;47.00;;;;;;7390412;19;20089;-79
2022/07/05 10:43:06;;;;;;;4.20;2.00;;;23.60;46.70;;;;;;7389758;19;20018;-78
2022/07/05 10:45:36;;;;;;;5.78;2.00;;;23.80;46.60;;;;;;7388571;19;20026;-79
2022/07/05 10:48:22;;;;;;;4.32;2.28;;;23.80;47.00;;;;;;7390751;19;20034;-80
2022/07/05 10:50:56;;;;;;;4.10;2.00;;;23.70;47.20;;;;;;7388776;19;20479;-79
2022/07/05 10:53:26;;;;;;;7.38;1.77;;;23.90;47.70;;;;;;7388501;19;20348;-78
2022/07/05 10:55:58;;;;;;;7.00;2.05;;;24.00;47.50;;;;;;7390925;19;20043;-81
2022/07/05 10:58:32;;;;;;;3.20;1.83;;;23.90;47.00;;;;;;7388738;19;20502;-81
2022/07/05 11:01:34;;;;;;;6.70;2.10;;;23.90;47.40;;;;;;7391249;19;20014;-83
2022/07/05 11:04:17;;;;;;;;;;;24.10;47.00;;;;;;7397885;19;20039;-81
2022/07/05 11:06:49;;;;;;;2.30;1.70;;;24.30;46.60;;;;;;7401892;19;19934;-81
2022/07/05 11:09:20;;;;;;;5.53;1.90;;;24.10;46.60;;;;;;7392243;19;20733;-80
2022/07/05 11:12:04;;;;;;;5.00;1.90;;;24.30;47.80;;;;;;7389642;19;20029;-80
2022/07/05 11:14:38;;;;;;;8.38;2.20;;;24.30;46.70;;;;;;7388064;19;20015;-79
2022/07/05 11:20:08;;;;;;;5.53;2.35;;;24.70;46.10;;;;;;7386381;19;20018;-78
2022/07/05 11:22:39;;;;;;;4.10;2.08;;;24.60;45.80;;;;;;7388320;19;20323;-78
2022/07/05 11:25:10;;;;;;;5.22;2.00;;;24.80;45.90;;;;;;7387256;19;20018;-77
2022/07/05 11:27:39;;;;;;;;;;;24.80;45.90;;;;;;7388047;19;20015;-77
2022/07/05 11:30:25;;;;;;;3.75;1.83;;;24.60;44.60;;;;;;7386689;19;19925;-80
2022/07/05 11:32:55;;;;;;;5.25;1.90;;;24.70;45.00;;;;;;7386606;19;20018;-78
2022/07/05 11:35:35;;;;;;;4.45;2.05;;;24.70;44.70;;;;;;7387399;19;20453;-78
2022/07/05 11:38:08;;;;;;;3.00;1.92;;;24.80;44.20;;;;;;7386540;19;20347;-77
2022/07/05 11:40:38;;;;;;;8.23;2.03;;;24.90;44.70;;;;;;7391315;19;20022;-77
2022/07/05 11:43:08;;;;;;;5.15;1.90;;;24.70;44.70;;;;;;7393284;19;20484;-77
2022/07/05 11:45:39;;;;;;;6.60;1.98;;;24.90;44.60;;;;;;7395606;19;20334;-78
2022/07/05 11:48:17;;;;;;;4.47;2.20;;;25.10;44.50;;;;;;7396335;19;20320;-78
2022/07/05 11:50:57;;;;;;;5.28;2.28;;;25.00;44.50;;;;;;7393565;19;20018;-80
2022/07/05 11:53:47;;;;;;;5.55;2.03;;;25.10;44.60;;;;;;7393431;19;20022;-80
2022/07/05 11:56:35;;;;;;;4.15;1.70;;;25.20;44.50;;;;;;7395654;19;20106;-79
2022/07/05 12:20:32;;;;;;;3.42;1.70;;;25.50;44.00;;;;;;7387333;19;20038;-80
2022/07/05 13:26:34;;;;;;;3.58;1.63;;;26.40;40.80;;;;;;7388669;19;20015;-80
2022/07/05 13:29:16;;;;;;;2.20;1.33;;;26.40;40.90;;;;;;7386360;19;20065;-79
2022/07/05 13:31:56;;;;;;;2.67;1.70;;;26.50;40.60;;;;;;7387041;19;20021;-79
2022/07/05 13:34:38;;;;;;;4.28;1.60;;;26.50;40.80;;;;;;7389064;19;20014;-79
2022/07/05 13:37:23;;;;;;;3.13;1.50;;;26.50;40.80;;;;;;7389852;19;20425;-79
2022/07/05 13:40:02;;;;;;;3.47;1.40;;;26.40;40.60;;;;;;7388112;19;20018;-79
2022/07/05 13:42:39;;;;;;;1.92;1.35;;;26.40;41.10;;;;;;7387466;19;20022;-79
2022/07/05 13:45:21;;;;;;;4.78;1.50;;;26.50;41.10;;;;;;7386744;19;20019;-79
2022/07/05 13:48:02;;;;;;;3.20;1.30;;;26.60;40.00;;;;;;7387727;19;20018;-79
2022/07/05 13:50:52;;;;;;;3.22;1.35;;;26.70;39.80;;;;;;7387107;19;20045;-79
2022/07/05 13:53:38;;;;;;;5.30;1.35;;;26.80;40.60;;;;;;7387845;19;20442;-79
2022/07/05 13:56:20;;;;;;;5.30;1.35;;;27.10;40.50;;;;;;7386814;19;20025;-79
2022/07/05 13:59:03;;;;;;;1.52;1.20;;;27.30;39.60;;;;;;7388944;19;20449;-79
2022/07/05 14:01:47;;;;;;;3.38;1.30;;;27.50;39.50;;;;;;7386884;19;20323;-79
2022/07/05 14:04:38;;;;;;;3.45;1.30;;;27.60;39.50;;;;;;7386814;19;20093;-81
2022/07/05 14:07:27;;;;;;;3.53;1.60;;;27.70;38.10;;;;;;7389682;19;20077;-80
2022/07/05 14:27:22;;;;;;;2.97;1.55;;;26.90;38.70;;;;;;7392131;19;20029;-79
2022/07/05 14:30:24;;;;;;;2.97;1.30;;;27.00;39.30;;;;;;7388046;19;20021;-79
2022/07/05 14:33:01;;;;;;;6.57;1.40;;;27.10;39.30;;;;;;7389261;19;20047;-80
2022/07/05 14:35:36;;;;;;;2.70;1.50;;;27.30;38.70;;;;;;7386945;19;20492;-79
2022/07/05 14:38:07;;;;;;;1.67;1.15;;;27.30;38.10;;;;;;7387790;19;20014;-79
2022/07/05 14:40:37;;;;;;;2.40;1.10;;;27.40;38.60;;;;;;7386871;19;20015;-79
2022/07/05 14:43:08;;;;;;;4.38;1.30;;;27.50;38.00;;;;;;7389579;19;20465;-78
2022/07/05 14:45:37;;;;;;;1.55;1.33;;;27.50;37.20;;;;;;7387183;19;20038;-78
2022/07/05 14:48:07;;;;;;;1.27;1.10;;;27.50;36.90;;;;;;7388832;19;20014;-80
2022/07/05 14:50:36;;;;;;;4.97;1.20;;;27.60;37.10;;;;;;7386639;19;20433;-79
2022/07/05 14:53:08;;;;;;;3.17;1.27;;;27.80;37.40;;;;;;7387294;19;20034;-80
2022/07/05 14:55:39;;;;;;;3.22;1.20;;;27.90;36.90;;;;;;7387300;19;20026;-80
2022/07/05 14:58:18;;;;;;;2.38;1.33;;;27.90;36.80;;;;;;7389768;19;20011;-79
2022/07/05 15:00:51;;;;;;;1.55;1.30;;;28.10;36.60;;;;;;7387824;19;20018;-79